DLH9LY EDDL-EDDF
Flight info
| Callsign | DLH9LY |
|---|---|
| Flight time | N/A |
| Altitude | 23000 |
| Route | COL6T/23L COL T911 ROLIS ROLIS5A/25R |
| Aircraft | A20N/M-SDE2E3FGHIRWXY/LB1 |
Departure
| Time | N/A |
|---|---|
| Airport | Düsseldorf Airport (EDDL) |
Arrival
| Time | 2026-05-04 18:02 |
|---|---|
| Airport | Frankfurt Main Airport (EDDF) |
| Time | Latitude | Longitude | Altitude | Speed | Heading |
|---|---|---|---|---|---|
| 2026-05-04 18:02 | 50.04452 | 8.54381 | 357 ft | 22 kts | 84° |
| 2026-05-04 18:02 | 50.04423 | 8.54608 | 359 ft | 23 kts | 119° |
| 2026-05-04 18:03 | 50.04396 | 8.54670 | 361 ft | 4 kts | 128° |
| 2026-05-04 18:03 | 50.04354 | 8.54732 | 357 ft | 10 kts | 143° |
| 2026-05-04 18:03 | 50.04332 | 8.54755 | 357 ft | 0 kts | 149° |
| 2026-05-04 18:04 | 50.04320 | 8.54765 | 358 ft | 5 kts | 149° |
| 2026-05-04 18:04 | 50.04111 | 8.54886 | 358 ft | 23 kts | 160° |
| 2026-05-04 18:05 | 50.03960 | 8.54975 | 357 ft | 22 kts | 159° |
| 2026-05-04 18:05 | 50.03851 | 8.55057 | 359 ft | 15 kts | 123° |
| 2026-05-04 18:05 | 50.03874 | 8.55218 | 360 ft | 17 kts | 70° |
| 2026-05-04 18:05 | 50.03919 | 8.55407 | 356 ft | 20 kts | 70° |
| 2026-05-04 18:06 | 50.04008 | 8.55781 | 360 ft | 15 kts | 70° |
| 2026-05-04 18:06 | 50.04035 | 8.55893 | 361 ft | 13 kts | 70° |
| 2026-05-04 18:06 | 50.04098 | 8.55968 | 358 ft | 12 kts | 349° |
| 2026-05-04 18:07 | 50.04155 | 8.55936 | 359 ft | 7 kts | 339° |
| 2026-05-04 18:07 | 50.04161 | 8.55933 | 358 ft | 0 kts | 340° |
| 2026-05-04 18:09 | 50.04187 | 8.55918 | 357 ft | 6 kts | 340° |
| 2026-05-04 18:10 | 50.04256 | 8.55951 | 361 ft | 15 kts | 26° |
| 2026-05-04 18:10 | 50.04328 | 8.55937 | 357 ft | 8 kts | 339° |
| 2026-05-04 18:10 | 50.04335 | 8.55933 | 357 ft | 0 kts | 339° |
| 2026-05-04 18:10 | 50.04336 | 8.55933 | 357 ft | 1 kts | 339° |
| 2026-05-04 18:11 | 50.04377 | 8.55926 | 357 ft | 12 kts | 5° |
| 2026-05-04 18:11 | 50.04435 | 8.56044 | 362 ft | 16 kts | 69° |
| 2026-05-04 18:11 | 50.04462 | 8.56159 | 359 ft | 12 kts | 70° |
| 2026-05-04 18:11 | 50.04474 | 8.56247 | 358 ft | 5 kts | 116° |
| 2026-05-04 18:12 | 50.04440 | 8.56267 | 361 ft | 7 kts | 163° |
| 2026-05-04 18:12 | 50.04419 | 8.56276 | 360 ft | 2 kts | 164° |
| 2026-05-04 18:12 | 50.04418 | 8.56277 | 359 ft | 0 kts | 164° |